createdAt,value
2019-02-16T00:00:44.204Z,10.50
2019-02-16T00:01:21.287Z,10.40
2019-02-16T00:01:58.450Z,10.50
2019-02-16T00:02:33.985Z,10.40
2019-02-16T00:03:09.543Z,10.50
2019-02-16T00:03:45.187Z,10.40
2019-02-16T00:04:20.732Z,10.40
2019-02-16T00:04:56.269Z,10.40
2019-02-16T00:05:31.767Z,10.40
2019-02-16T00:06:07.262Z,10.40
2019-02-16T00:06:42.878Z,10.40
2019-02-16T00:07:18.378Z,10.40
2019-02-16T00:07:53.866Z,10.40
2019-02-16T00:08:29.553Z,10.40
2019-02-16T00:09:05.354Z,10.40
2019-02-16T00:09:41.826Z,10.40
2019-02-16T00:10:17.333Z,10.40
2019-02-16T00:10:52.827Z,10.40
2019-02-16T00:11:28.323Z,10.40
2019-02-16T00:12:03.898Z,10.40
2019-02-16T00:12:39.404Z,10.40
2019-02-16T00:13:15.185Z,10.40
2019-02-16T00:13:50.683Z,10.40
2019-02-16T00:14:26.428Z,10.30
2019-02-16T00:15:01.922Z,10.40
2019-02-16T00:15:37.472Z,10.40
2019-02-16T00:16:12.963Z,10.30
2019-02-16T00:16:48.498Z,10.30
2019-02-16T00:17:23.993Z,10.30
2019-02-16T00:17:59.479Z,10.30
2019-02-16T00:18:34.995Z,10.30
2019-02-16T00:19:10.556Z,10.30
2019-02-16T00:19:46.686Z,10.30
2019-02-16T00:20:22.186Z,10.30
2019-02-16T00:21:03.714Z,10.30
2019-02-16T00:21:35.304Z,10.20
2019-02-16T00:22:10.883Z,10.30
2019-02-16T00:22:46.502Z,10.30
2019-02-16T00:23:22.053Z,10.20
2019-02-16T00:23:57.729Z,10.20
2019-02-16T00:24:33.349Z,10.20
2019-02-16T00:25:08.854Z,10.20
2019-02-16T00:25:45.519Z,10.30
2019-02-16T00:26:21.068Z,10.20
2019-02-16T00:26:56.591Z,10.20
2019-02-16T00:27:32.128Z,10.20
2019-02-16T00:28:07.613Z,10.20
2019-02-16T00:28:43.470Z,10.20
2019-02-16T00:29:19.237Z,10.20
2019-02-16T00:29:54.730Z,10.20
2019-02-16T00:30:30.249Z,10.20
2019-02-16T00:31:06.044Z,10.20
2019-02-16T00:31:41.564Z,10.20
2019-02-16T00:32:17.364Z,10.20
2019-02-16T00:32:52.901Z,10.20
2019-02-16T00:33:28.426Z,10.20
2019-02-16T00:34:03.918Z,10.20
2019-02-16T00:34:39.544Z,10.10
2019-02-16T00:35:15.109Z,10.10
2019-02-16T00:35:50.691Z,10.10
2019-02-16T00:36:27.061Z,10.10
2019-02-16T00:37:02.951Z,10.10
2019-02-16T00:37:38.451Z,10.10
2019-02-16T00:38:13.963Z,10.10
2019-02-16T00:38:49.509Z,10.10
2019-02-16T00:39:25.115Z,10.10
2019-02-16T00:40:00.683Z,10.10
2019-02-16T00:40:36.542Z,10.10
2019-02-16T00:41:12.164Z,10.10
2019-02-16T00:41:47.655Z,10.10
2019-02-16T00:42:23.234Z,10.00
2019-02-16T00:42:58.742Z,10.10
2019-02-16T00:43:34.339Z,10.00
2019-02-16T00:44:09.836Z,10.10
2019-02-16T00:44:45.675Z,10.00
2019-02-16T00:45:21.194Z,10.00
2019-02-16T00:45:56.690Z,10.00
2019-02-16T00:46:32.212Z,10.00
2019-02-16T00:47:07.847Z,10.00
2019-02-16T00:47:43.606Z,10.00
2019-02-16T00:48:19.165Z,10.00
2019-02-16T00:48:54.937Z,10.00
2019-02-16T00:49:30.687Z,10.00
2019-02-16T00:50:06.297Z,10.00
2019-02-16T00:50:42.058Z,10.00
2019-02-16T00:51:17.554Z,10.00
2019-02-16T00:51:53.139Z,10.00
2019-02-16T00:52:28.867Z,10.00
2019-02-16T00:53:04.364Z,10.00
2019-02-16T00:53:40.003Z,10.00
2019-02-16T00:54:15.861Z,10.00
2019-02-16T00:54:51.342Z,10.00
2019-02-16T00:55:27.349Z,10.00
2019-02-16T00:56:02.847Z,10.00
2019-02-16T00:56:38.690Z,10.00
2019-02-16T00:57:14.261Z,10.00
2019-02-16T00:57:50.035Z,10.00
2019-02-16T00:58:25.634Z,10.00
2019-02-16T00:59:01.124Z,10.00
2019-02-16T00:59:36.639Z,10.00
2019-02-16T01:00:12.250Z,10.00
2019-02-16T01:00:48.090Z,10.00
2019-02-16T01:01:23.700Z,10.00
2019-02-16T01:01:59.276Z,10.00
2019-02-16T01:02:35.074Z,10.00
2019-02-16T01:03:10.554Z,10.00
2019-02-16T01:03:46.278Z,10.00
2019-02-16T01:04:22.023Z,10.00
2019-02-16T01:04:57.909Z,10.00
2019-02-16T01:05:33.449Z,10.00
2019-02-16T01:06:09.258Z,10.00
2019-02-16T01:06:44.833Z,10.00
2019-02-16T01:07:20.339Z,10.00
2019-02-16T01:07:56.176Z,9.90
2019-02-16T01:08:31.941Z,9.90
2019-02-16T01:09:07.703Z,10.00
2019-02-16T01:09:43.207Z,10.00
2019-02-16T01:10:18.767Z,10.00
2019-02-16T01:10:54.309Z,10.00
2019-02-16T01:11:29.816Z,10.00
2019-02-16T01:12:05.306Z,10.00
2019-02-16T01:12:40.834Z,10.00
2019-02-16T01:13:16.334Z,10.00
2019-02-16T01:13:51.840Z,10.00
2019-02-16T01:14:27.334Z,10.00
2019-02-16T01:15:02.975Z,10.00
2019-02-16T01:15:39.489Z,10.00
2019-02-16T01:16:15.383Z,10.00
2019-02-16T01:16:50.871Z,10.00
2019-02-16T01:17:26.419Z,10.00
2019-02-16T01:18:01.922Z,10.00
2019-02-16T01:18:37.758Z,10.00
2019-02-16T01:19:13.260Z,10.00
2019-02-16T01:19:49.249Z,10.00
2019-02-16T01:20:24.747Z,10.00
2019-02-16T01:21:00.320Z,10.00
2019-02-16T01:21:35.854Z,10.00
2019-02-16T01:22:11.360Z,10.00
2019-02-16T01:22:46.991Z,10.00
2019-02-16T01:23:22.490Z,10.00
2019-02-16T01:23:57.999Z,10.00
2019-02-16T01:24:33.494Z,10.00
2019-02-16T01:25:09.370Z,10.00
2019-02-16T01:25:44.941Z,9.90
2019-02-16T01:26:20.434Z,10.00
2019-02-16T01:26:56.272Z,9.90
2019-02-16T01:27:31.758Z,9.90
2019-02-16T01:28:07.288Z,9.90
2019-02-16T01:28:43.082Z,9.90
2019-02-16T01:29:18.895Z,9.90
2019-02-16T01:29:54.743Z,9.90
2019-02-16T01:30:30.250Z,9.90
2019-02-16T01:31:05.777Z,9.90
2019-02-16T01:31:41.397Z,9.90
2019-02-16T01:32:16.977Z,9.90
2019-02-16T01:32:52.517Z,9.80
2019-02-16T01:33:28.601Z,9.80
2019-02-16T01:34:04.166Z,9.80
2019-02-16T01:34:39.855Z,9.80
2019-02-16T01:35:15.374Z,9.80
2019-02-16T01:35:51.121Z,9.80
2019-02-16T01:36:26.646Z,9.80
2019-02-16T01:37:02.138Z,9.80
2019-02-16T01:37:37.679Z,9.80
2019-02-16T01:38:13.169Z,9.80
2019-02-16T01:38:48.663Z,9.80
2019-02-16T01:39:24.203Z,9.80
2019-02-16T01:39:59.726Z,9.80
2019-02-16T01:40:35.227Z,9.80
2019-02-16T01:41:10.799Z,9.80
2019-02-16T01:41:47.614Z,9.70
2019-02-16T01:42:23.945Z,9.80
2019-02-16T01:42:59.449Z,9.80
2019-02-16T01:43:35.052Z,9.70
2019-02-16T01:44:10.873Z,9.70
2019-02-16T01:44:46.513Z,9.70
2019-02-16T01:45:22.258Z,9.70
2019-02-16T01:45:57.797Z,9.70
2019-02-16T01:46:33.280Z,9.70
2019-02-16T01:47:08.839Z,9.70
2019-02-16T01:47:44.770Z,9.70
2019-02-16T01:48:20.575Z,9.70
2019-02-16T01:48:56.359Z,9.70
2019-02-16T01:49:31.866Z,9.70
2019-02-16T01:50:08.777Z,9.70
2019-02-16T01:50:44.366Z,9.70
2019-02-16T01:51:19.894Z,9.70
2019-02-16T01:51:55.403Z,9.70
2019-02-16T01:52:30.908Z,9.70
2019-02-16T01:53:06.402Z,9.60
2019-02-16T01:53:41.952Z,9.60
2019-02-16T01:54:17.493Z,9.60
2019-02-16T01:54:53.299Z,9.60
2019-02-16T01:55:28.834Z,9.60
2019-02-16T01:56:04.655Z,9.60
2019-02-16T01:56:40.183Z,9.60
2019-02-16T01:57:15.686Z,9.60
2019-02-16T01:57:51.435Z,9.60
2019-02-16T01:58:26.981Z,9.50
2019-02-16T01:59:02.479Z,9.50
2019-02-16T01:59:38.027Z,9.50
2019-02-16T02:00:13.829Z,9.50
2019-02-16T02:00:49.605Z,9.50
2019-02-16T02:01:25.121Z,9.50
2019-02-16T02:02:00.619Z,9.50
2019-02-16T02:02:36.151Z,9.50
2019-02-16T02:03:11.670Z,9.50
2019-02-16T02:03:50.142Z,9.50
2019-02-16T02:04:25.646Z,9.50
2019-02-16T02:05:01.187Z,9.50
2019-02-16T02:05:36.678Z,9.40
2019-02-16T02:06:12.478Z,9.50
2019-02-16T02:06:48.067Z,9.50
2019-02-16T02:07:23.542Z,9.50
2019-02-16T02:07:59.091Z,9.40
2019-02-16T02:08:34.588Z,9.40
2019-02-16T02:09:12.153Z,9.40
2019-02-16T02:09:47.912Z,9.40
2019-02-16T02:10:23.713Z,9.50
2019-02-16T02:10:59.194Z,9.50
2019-02-16T02:11:34.678Z,9.50
2019-02-16T02:12:10.218Z,9.50
2019-02-16T02:12:45.837Z,9.50
2019-02-16T02:13:21.563Z,9.50
2019-02-16T02:13:57.093Z,9.50
2019-02-16T02:14:32.979Z,9.50
2019-02-16T02:15:09.066Z,9.50
2019-02-16T02:15:44.574Z,9.50
2019-02-16T02:16:20.054Z,9.50
2019-02-16T02:16:55.788Z,9.50
2019-02-16T02:17:31.325Z,9.50
2019-02-16T02:18:06.797Z,9.50
2019-02-16T02:18:42.296Z,9.50
2019-02-16T02:19:17.783Z,9.50
2019-02-16T02:19:54.252Z,9.50
2019-02-16T02:20:30.160Z,9.50
2019-02-16T02:21:05.683Z,9.50
2019-02-16T02:21:41.625Z,9.50
2019-02-16T02:22:17.237Z,9.50
2019-02-16T02:22:52.880Z,9.50
2019-02-16T02:23:28.419Z,9.50
2019-02-16T02:24:03.912Z,9.50
2019-02-16T02:24:39.643Z,9.50
2019-02-16T02:25:15.391Z,9.50
2019-02-16T02:25:50.879Z,9.50
2019-02-16T02:26:26.383Z,9.50
2019-02-16T02:27:01.961Z,9.50
2019-02-16T02:27:37.453Z,9.50
2019-02-16T02:28:13.223Z,9.50
2019-02-16T02:28:49.054Z,9.50
2019-02-16T02:29:24.794Z,9.50
2019-02-16T02:30:00.701Z,9.50
2019-02-16T02:30:36.199Z,9.50
2019-02-16T02:31:12.792Z,9.50
2019-02-16T02:31:48.288Z,9.50
2019-02-16T02:32:23.846Z,9.50
2019-02-16T02:32:59.412Z,9.50
2019-02-16T02:33:34.949Z,9.50
2019-02-16T02:34:10.440Z,9.50
2019-02-16T02:34:46.057Z,9.50
2019-02-16T02:35:21.586Z,9.50
2019-02-16T02:35:57.077Z,9.50
2019-02-16T02:36:32.596Z,9.50
2019-02-16T02:37:08.424Z,9.50
2019-02-16T02:37:43.925Z,9.50
2019-02-16T02:38:19.696Z,9.50
2019-02-16T02:38:55.223Z,9.50
2019-02-16T02:39:30.859Z,9.50
2019-02-16T02:40:06.529Z,9.50
2019-02-16T02:40:42.039Z,9.50
2019-02-16T02:41:17.519Z,9.40
2019-02-16T02:41:53.007Z,9.40
2019-02-16T02:42:28.777Z,9.40
2019-02-16T02:43:04.302Z,9.40
2019-02-16T02:43:41.142Z,9.50
2019-02-16T02:44:16.626Z,9.50
2019-02-16T02:44:52.519Z,9.40
2019-02-16T02:45:28.310Z,9.40
2019-02-16T02:46:04.051Z,9.50
2019-02-16T02:46:39.958Z,9.40
2019-02-16T02:47:15.480Z,9.40
2019-02-16T02:47:50.986Z,9.50
2019-02-16T02:48:26.466Z,9.50
2019-02-16T02:49:01.958Z,9.50
2019-02-16T02:49:37.447Z,9.50
2019-02-16T02:50:13.281Z,9.50
2019-02-16T02:50:48.818Z,9.50
2019-02-16T02:51:24.379Z,9.50
2019-02-16T02:51:59.910Z,9.50
2019-02-16T02:52:35.418Z,9.50
2019-02-16T02:53:10.953Z,9.50
2019-02-16T02:53:46.574Z,9.50
2019-02-16T02:54:22.086Z,9.50
2019-02-16T02:54:57.584Z,9.50
2019-02-16T02:55:33.076Z,9.50
2019-02-16T02:56:08.897Z,9.50
2019-02-16T02:56:44.428Z,9.50
2019-02-16T02:57:19.982Z,9.50
2019-02-16T02:57:55.479Z,9.50
2019-02-16T02:58:30.988Z,9.50
2019-02-16T02:59:06.502Z,9.50
2019-02-16T02:59:42.018Z,9.50
2019-02-16T03:00:17.566Z,9.50
2019-02-16T03:00:53.298Z,9.50
2019-02-16T03:01:29.104Z,9.50
2019-02-16T03:02:04.704Z,9.50
2019-02-16T03:02:40.254Z,9.50
2019-02-16T03:03:15.763Z,9.50
2019-02-16T03:03:51.244Z,9.50
2019-02-16T03:04:26.980Z,9.50
2019-02-16T03:05:02.521Z,9.50
2019-02-16T03:05:39.075Z,9.50
2019-02-16T03:06:14.579Z,9.50
2019-02-16T03:06:50.147Z,9.50
2019-02-16T03:07:26.028Z,9.50
2019-02-16T03:08:01.511Z,9.50
2019-02-16T03:08:37.296Z,9.50
2019-02-16T03:09:12.783Z,9.50
2019-02-16T03:09:48.342Z,9.50
2019-02-16T03:10:23.819Z,9.50
2019-02-16T03:10:59.388Z,9.50
2019-02-16T03:11:34.874Z,9.50
2019-02-16T03:12:10.378Z,9.50
2019-02-16T03:12:46.264Z,9.50
2019-02-16T03:13:21.799Z,9.50
2019-02-16T03:13:57.296Z,9.50
2019-02-16T03:14:33.876Z,9.40
2019-02-16T03:15:09.444Z,9.50
2019-02-16T03:15:45.129Z,9.50
2019-02-16T03:16:20.612Z,9.50
2019-02-16T03:16:56.455Z,9.50
2019-02-16T03:17:34.681Z,9.50
2019-02-16T03:18:10.289Z,9.50
2019-02-16T03:18:45.842Z,9.50
2019-02-16T03:19:21.339Z,9.50
2019-02-16T03:19:57.120Z,9.50
2019-02-16T03:20:32.649Z,9.40
2019-02-16T03:21:08.377Z,9.50
2019-02-16T03:21:44.183Z,9.40
2019-02-16T03:22:20.363Z,9.40
2019-02-16T03:23:15.065Z,9.40
2019-02-16T03:23:50.826Z,9.40
2019-02-16T03:24:26.327Z,9.40
2019-02-16T03:25:01.895Z,9.40
2019-02-16T03:25:37.892Z,9.40
2019-02-16T03:26:52.572Z,9.40
2019-02-16T03:27:46.206Z,9.40
2019-02-16T03:28:50.114Z,9.40
2019-02-16T03:30:08.967Z,9.40
2019-02-16T03:31:16.837Z,9.40
2019-02-16T03:32:26.574Z,9.40
2019-02-16T03:33:16.678Z,9.40
2019-02-16T03:34:00.058Z,9.40
2019-02-16T03:35:03.743Z,9.40
2019-02-16T03:36:24.303Z,9.40
2019-02-16T03:37:49.458Z,9.40
2019-02-16T03:38:53.648Z,9.40
2019-02-16T03:39:35.894Z,9.40
2019-02-16T03:40:11.483Z,9.40
2019-02-16T03:40:48.951Z,9.40
2019-02-16T03:41:24.454Z,9.40
2019-02-16T03:41:59.956Z,9.40
2019-02-16T03:42:35.483Z,9.40
2019-02-16T03:43:11.010Z,9.40
2019-02-16T03:43:46.771Z,9.40
2019-02-16T03:44:22.639Z,9.30
2019-02-16T03:44:58.178Z,9.40
2019-02-16T03:45:33.802Z,9.30
2019-02-16T03:46:09.286Z,9.30
2019-02-16T03:46:44.898Z,9.30
2019-02-16T03:47:20.384Z,9.30
2019-02-16T03:47:56.016Z,9.30
2019-02-16T03:48:31.544Z,9.30
2019-02-16T03:49:07.036Z,9.30
2019-02-16T03:49:42.547Z,9.30
2019-02-16T03:50:18.095Z,9.30
2019-02-16T03:50:53.628Z,9.40
2019-02-16T03:51:29.123Z,9.30
2019-02-16T03:52:13.276Z,9.30
2019-02-16T03:52:41.855Z,9.40
2019-02-16T03:53:17.374Z,9.40
2019-02-16T03:53:52.909Z,9.40
2019-02-16T03:54:28.703Z,9.30
2019-02-16T03:55:04.641Z,9.40
2019-02-16T03:55:40.132Z,9.30
2019-02-16T03:56:15.662Z,9.30
2019-02-16T03:56:51.464Z,9.30
2019-02-16T03:57:27.670Z,9.30
2019-02-16T03:58:03.287Z,9.30
2019-02-16T03:58:38.924Z,9.30
2019-02-16T03:59:14.444Z,9.30
2019-02-16T03:59:49.939Z,9.30
2019-02-16T04:00:25.745Z,9.30
2019-02-16T04:01:01.240Z,9.30
2019-02-16T04:01:36.797Z,9.30
2019-02-16T04:02:12.286Z,9.30
2019-02-16T04:02:48.062Z,9.30
2019-02-16T04:03:24.118Z,9.30
2019-02-16T04:03:59.665Z,9.30
2019-02-16T04:04:35.450Z,9.30
2019-02-16T04:05:10.985Z,9.30
2019-02-16T04:05:48.915Z,9.30
2019-02-16T04:06:24.454Z,9.30
2019-02-16T04:07:00.077Z,9.30
2019-02-16T04:07:36.109Z,9.30
2019-02-16T04:08:11.674Z,9.30
2019-02-16T04:08:47.319Z,9.20
2019-02-16T04:09:22.839Z,9.20
2019-02-16T04:09:58.356Z,9.20
2019-02-16T04:10:33.847Z,9.20
2019-02-16T04:11:10.402Z,9.30
2019-02-16T04:11:48.639Z,9.20
2019-02-16T04:12:24.151Z,9.20
2019-02-16T04:12:59.720Z,9.20
2019-02-16T04:13:35.195Z,9.20
2019-02-16T04:14:11.088Z,9.20
2019-02-16T04:14:46.648Z,9.20
2019-02-16T04:15:22.144Z,9.30
2019-02-16T04:15:57.645Z,9.20
2019-02-16T04:16:33.208Z,9.20
2019-02-16T04:17:08.751Z,9.20
2019-02-16T04:17:45.474Z,9.20
2019-02-16T04:18:21.343Z,9.30
2019-02-16T04:18:56.869Z,9.20
2019-02-16T04:19:32.349Z,9.20
2019-02-16T04:20:07.876Z,9.20
2019-02-16T04:20:43.379Z,9.20
2019-02-16T04:21:19.910Z,9.20
2019-02-16T04:21:55.782Z,9.20
2019-02-16T04:22:31.412Z,9.30
2019-02-16T04:23:07.570Z,9.20
2019-02-16T04:23:43.117Z,9.20
2019-02-16T04:24:19.306Z,9.20
2019-02-16T04:24:55.090Z,9.20
2019-02-16T04:25:30.586Z,9.20
2019-02-16T04:26:09.912Z,9.20
2019-02-16T04:26:45.710Z,9.20
2019-02-16T04:27:21.427Z,9.10
2019-02-16T04:27:56.942Z,9.20
2019-02-16T04:28:32.494Z,9.20
2019-02-16T04:29:07.990Z,9.10
2019-02-16T04:29:43.496Z,9.10
2019-02-16T04:30:20.597Z,9.10
2019-02-16T04:30:56.136Z,9.10
2019-02-16T04:31:31.641Z,9.10
2019-02-16T04:32:07.130Z,9.10
2019-02-16T04:32:42.736Z,9.10
2019-02-16T04:33:18.254Z,9.10
2019-02-16T04:33:54.094Z,9.10
2019-02-16T04:34:29.888Z,9.10
2019-02-16T04:35:05.521Z,9.00
2019-02-16T04:35:41.030Z,9.00
2019-02-16T04:36:16.887Z,9.00
2019-02-16T04:36:52.505Z,9.00
2019-02-16T04:37:27.993Z,9.00
2019-02-16T04:38:04.620Z,9.00
2019-02-16T04:38:40.200Z,9.00
2019-02-16T04:39:15.710Z,9.00
2019-02-16T04:39:51.474Z,8.90
2019-02-16T04:40:26.963Z,8.90
2019-02-16T04:41:02.451Z,8.90
2019-02-16T04:41:37.995Z,8.90
2019-02-16T04:42:13.825Z,8.90
2019-02-16T04:42:49.648Z,8.90
2019-02-16T04:43:25.163Z,8.90
2019-02-16T04:44:00.701Z,8.90
2019-02-16T04:44:36.883Z,8.80
2019-02-16T04:45:12.459Z,8.80
2019-02-16T04:45:48.273Z,8.80
2019-02-16T04:46:23.833Z,8.80
2019-02-16T04:46:59.762Z,8.80
2019-02-16T04:47:35.561Z,8.80
2019-02-16T04:48:11.058Z,8.80
2019-02-16T04:48:46.622Z,8.80
2019-02-16T04:49:22.152Z,8.70
2019-02-16T04:49:57.689Z,8.70
2019-02-16T04:50:33.175Z,8.70
2019-02-16T04:51:08.673Z,8.70
2019-02-16T04:51:44.210Z,8.70
2019-02-16T04:52:19.719Z,8.70
2019-02-16T04:52:55.469Z,8.70
2019-02-16T04:53:30.975Z,8.70
2019-02-16T04:54:06.774Z,8.70
2019-02-16T04:54:43.103Z,8.70
2019-02-16T04:55:18.584Z,8.70
2019-02-16T04:55:54.073Z,8.60
2019-02-16T04:56:29.804Z,8.60
2019-02-16T04:57:05.352Z,8.70
2019-02-16T04:57:40.861Z,8.60
2019-02-16T04:58:16.376Z,8.60
2019-02-16T04:58:52.160Z,8.60
2019-02-16T04:59:27.693Z,8.60
2019-02-16T05:00:03.401Z,8.60
2019-02-16T05:00:40.281Z,8.60
2019-02-16T05:01:15.834Z,8.60
2019-02-16T05:01:51.378Z,8.60
2019-02-16T05:02:27.259Z,8.60
2019-02-16T05:03:02.791Z,8.60
2019-02-16T05:03:38.329Z,8.60
2019-02-16T05:04:14.259Z,8.60
2019-02-16T05:04:49.759Z,8.60
2019-02-16T05:05:25.254Z,8.50
2019-02-16T05:06:00.756Z,8.50
2019-02-16T05:06:36.246Z,8.50
2019-02-16T05:07:11.741Z,8.50
2019-02-16T05:07:47.675Z,8.50
2019-02-16T05:08:23.215Z,8.50
2019-02-16T05:08:58.962Z,8.50
2019-02-16T05:09:34.480Z,8.50
2019-02-16T05:10:09.983Z,8.50
2019-02-16T05:10:45.629Z,8.50
2019-02-16T05:11:21.120Z,8.50
2019-02-16T05:11:57.132Z,8.50
2019-02-16T05:12:32.611Z,8.40
2019-02-16T05:13:08.146Z,8.50
2019-02-16T05:13:43.741Z,8.40
2019-02-16T05:14:19.277Z,8.40
2019-02-16T05:14:55.781Z,8.40
2019-02-16T05:15:31.297Z,8.40
2019-02-16T05:16:06.845Z,8.30
2019-02-16T05:16:42.566Z,8.30
2019-02-16T05:17:18.166Z,8.30
2019-02-16T05:17:53.697Z,8.30
2019-02-16T05:18:29.233Z,8.30
2019-02-16T05:19:04.753Z,8.30
2019-02-16T05:19:40.311Z,8.30
2019-02-16T05:20:15.802Z,8.30
2019-02-16T05:20:51.386Z,8.20
2019-02-16T05:21:26.866Z,8.20
2019-02-16T05:22:02.399Z,8.20
2019-02-16T05:22:44.361Z,8.20
2019-02-16T05:23:15.331Z,8.20
2019-02-16T05:23:50.864Z,8.10
2019-02-16T05:24:26.393Z,8.10
2019-02-16T05:25:02.107Z,8.10
2019-02-16T05:25:37.873Z,8.10
2019-02-16T05:26:13.351Z,8.10
2019-02-16T05:26:48.841Z,8.10
2019-02-16T05:27:24.570Z,8.10
2019-02-16T05:28:00.303Z,8.10
2019-02-16T05:28:35.844Z,8.10
2019-02-16T05:29:11.319Z,8.10
2019-02-16T05:29:46.913Z,8.10
2019-02-16T05:30:22.405Z,8.10
2019-02-16T05:30:57.953Z,8.10
2019-02-16T05:31:33.436Z,8.10
2019-02-16T05:32:09.090Z,8.10
2019-02-16T05:32:44.624Z,8.10
2019-02-16T05:33:21.125Z,8.10
2019-02-16T05:33:56.657Z,8.10
2019-02-16T05:34:32.134Z,8.10
2019-02-16T05:35:07.654Z,8.10
2019-02-16T05:35:43.146Z,8.10
2019-02-16T05:36:18.667Z,8.10
2019-02-16T05:36:54.238Z,8.20
2019-02-16T05:37:30.524Z,8.20
2019-02-16T05:38:08.002Z,8.20
2019-02-16T05:38:43.492Z,8.20
2019-02-16T05:39:19.969Z,8.20
2019-02-16T05:39:55.784Z,8.20
2019-02-16T05:40:31.496Z,8.20
2019-02-16T05:41:07.268Z,8.20
2019-02-16T05:41:42.757Z,8.20
2019-02-16T05:42:18.357Z,8.20
2019-02-16T05:42:53.875Z,8.20
2019-02-16T05:43:29.357Z,8.20
2019-02-16T05:44:04.885Z,8.20
2019-02-16T05:44:40.414Z,8.30
2019-02-16T05:45:22.634Z,8.20
2019-02-16T05:45:58.877Z,8.20
2019-02-16T05:46:34.455Z,8.20
2019-02-16T05:47:09.950Z,8.20
2019-02-16T05:47:45.680Z,8.20
2019-02-16T05:48:21.176Z,8.20
2019-02-16T05:48:56.977Z,8.20
2019-02-16T05:49:32.499Z,8.20
2019-02-16T05:50:08.095Z,8.20
2019-02-16T05:50:43.620Z,8.20
2019-02-16T05:51:19.199Z,8.20
2019-02-16T05:51:54.945Z,8.20
2019-02-16T05:52:30.437Z,8.20
2019-02-16T05:53:06.903Z,8.20
2019-02-16T05:53:42.427Z,8.20
2019-02-16T05:54:18.287Z,8.20
2019-02-16T05:54:53.904Z,8.10
2019-02-16T05:55:29.424Z,8.10
2019-02-16T05:56:05.192Z,8.10
2019-02-16T05:56:40.745Z,8.10
2019-02-16T05:57:16.222Z,8.00
2019-02-16T05:57:52.018Z,8.00
2019-02-16T05:58:27.574Z,8.00
2019-02-16T05:59:03.096Z,8.00
2019-02-16T05:59:38.592Z,7.90
2019-02-16T06:00:14.673Z,7.90
2019-02-16T06:00:50.308Z,7.80
2019-02-16T06:01:26.184Z,7.80
2019-02-16T06:02:01.706Z,7.80
2019-02-16T06:02:37.334Z,7.70
2019-02-16T06:03:12.879Z,7.70
2019-02-16T06:03:48.433Z,7.60
2019-02-16T06:04:23.919Z,7.60
2019-02-16T06:04:59.464Z,7.60
2019-02-16T06:05:35.520Z,7.60
2019-02-16T06:06:11.071Z,7.60
2019-02-16T06:06:46.600Z,7.60
2019-02-16T06:07:22.099Z,7.60
2019-02-16T06:07:57.637Z,7.60
2019-02-16T06:08:33.132Z,7.60
2019-02-16T06:09:09.039Z,7.60
2019-02-16T06:09:44.619Z,7.50
2019-02-16T06:10:20.175Z,7.60
2019-02-16T06:10:55.964Z,7.50
2019-02-16T06:11:33.866Z,7.50
2019-02-16T06:12:09.366Z,7.50
2019-02-16T06:12:44.913Z,7.50
2019-02-16T06:13:20.523Z,7.40
2019-02-16T06:13:56.020Z,7.50
2019-02-16T06:14:31.613Z,7.50
2019-02-16T06:15:07.936Z,7.50
2019-02-16T06:15:43.519Z,7.40
2019-02-16T06:16:19.015Z,7.40
2019-02-16T06:16:54.830Z,7.40
2019-02-16T06:17:30.862Z,7.40
2019-02-16T06:18:06.394Z,7.40
2019-02-16T06:18:41.892Z,7.30
2019-02-16T06:19:17.382Z,7.30
2019-02-16T06:19:52.951Z,7.30
2019-02-16T06:20:28.450Z,7.30
2019-02-16T06:21:05.277Z,7.30
2019-02-16T06:21:40.922Z,7.20
2019-02-16T06:22:16.827Z,7.20
2019-02-16T06:22:52.391Z,7.10
2019-02-16T06:23:27.888Z,7.10
2019-02-16T06:24:03.644Z,7.10
2019-02-16T06:24:39.431Z,7.10
2019-02-16T06:25:14.951Z,7.10
2019-02-16T06:25:50.498Z,7.10
2019-02-16T06:26:25.995Z,7.10
2019-02-16T06:27:01.490Z,7.10
2019-02-16T06:27:36.978Z,7.10
2019-02-16T06:28:12.576Z,7.10
2019-02-16T06:28:48.094Z,7.10
2019-02-16T06:29:23.618Z,7.10
2019-02-16T06:29:59.178Z,7.10
2019-02-16T06:30:34.983Z,7.10
2019-02-16T06:31:10.584Z,7.10
2019-02-16T06:31:46.191Z,7.00
2019-02-16T06:32:21.715Z,7.00
2019-02-16T06:32:57.213Z,7.00
2019-02-16T06:33:32.749Z,7.00
2019-02-16T06:34:08.257Z,7.00
2019-02-16T06:34:44.860Z,6.90
2019-02-16T06:35:36.116Z,6.90
2019-02-16T06:36:20.072Z,6.90
2019-02-16T06:36:55.672Z,6.90
2019-02-16T06:37:31.192Z,6.80
2019-02-16T06:38:06.710Z,6.80
2019-02-16T06:38:42.490Z,6.70
2019-02-16T06:39:17.981Z,6.70
2019-02-16T06:39:53.612Z,6.70
2019-02-16T06:40:29.359Z,6.70
2019-02-16T06:41:04.838Z,6.70
2019-02-16T06:41:40.570Z,6.70
2019-02-16T06:42:16.116Z,6.70
2019-02-16T06:42:51.615Z,6.60
2019-02-16T06:43:27.142Z,6.60
2019-02-16T06:44:02.636Z,6.60
2019-02-16T06:44:38.562Z,6.60
2019-02-16T06:45:14.081Z,6.60
2019-02-16T06:45:49.562Z,6.50
2019-02-16T06:46:25.068Z,6.50
2019-02-16T06:47:00.853Z,6.50
2019-02-16T06:47:36.366Z,6.50
2019-02-16T06:48:11.950Z,6.50
2019-02-16T06:48:48.030Z,6.50
2019-02-16T06:49:23.766Z,6.50
2019-02-16T06:49:59.553Z,6.40
2019-02-16T06:50:37.052Z,6.50
2019-02-16T06:51:12.521Z,6.40
2019-02-16T06:51:48.029Z,6.40
2019-02-16T06:52:23.605Z,6.40
2019-02-16T06:53:00.176Z,6.40
2019-02-16T06:53:35.918Z,6.40
2019-02-16T06:54:11.711Z,6.40
2019-02-16T06:54:47.447Z,6.40
2019-02-16T06:55:24.621Z,6.40
2019-02-16T06:56:04.283Z,6.40
2019-02-16T06:56:57.693Z,6.40
2019-02-16T06:57:33.239Z,6.40
2019-02-16T06:58:08.977Z,6.50
2019-02-16T06:58:45.622Z,6.50
2019-02-16T06:59:21.178Z,6.50
2019-02-16T06:59:56.674Z,6.40
2019-02-16T07:00:32.189Z,6.50
2019-02-16T07:01:07.738Z,6.40
2019-02-16T07:01:43.238Z,6.40
2019-02-16T07:02:19.445Z,6.40
2019-02-16T07:02:54.969Z,6.40
2019-02-16T07:03:30.465Z,6.40
2019-02-16T07:04:05.967Z,6.40
2019-02-16T07:04:41.473Z,6.40
2019-02-16T07:05:16.956Z,6.40
2019-02-16T07:05:52.497Z,6.40
2019-02-16T07:06:28.146Z,6.40
2019-02-16T07:07:03.664Z,6.40
2019-02-16T07:07:39.191Z,6.30
2019-02-16T07:08:14.733Z,6.30
2019-02-16T07:08:50.214Z,6.30
2019-02-16T07:09:25.731Z,6.30
2019-02-16T07:10:01.240Z,6.30
2019-02-16T07:10:36.762Z,6.30
2019-02-16T07:11:12.268Z,6.30
2019-02-16T07:11:47.823Z,6.30
2019-02-16T07:12:23.419Z,6.30
2019-02-16T07:12:59.154Z,6.30
2019-02-16T07:13:34.905Z,6.30
2019-02-16T07:14:10.723Z,6.30
2019-02-16T07:14:46.375Z,6.30
2019-02-16T07:15:21.951Z,6.30
2019-02-16T07:16:22.506Z,6.30
2019-02-16T07:17:04.527Z,6.40
2019-02-16T07:17:59.115Z,6.40
2019-02-16T07:18:43.077Z,6.40
2019-02-16T07:19:21.685Z,6.50
2019-02-16T07:19:58.830Z,6.50
2019-02-16T07:20:34.342Z,6.50
2019-02-16T07:21:09.844Z,6.50
2019-02-16T07:21:45.365Z,6.50
2019-02-16T07:22:20.891Z,6.60
2019-02-16T07:22:56.705Z,6.60
2019-02-16T07:23:32.268Z,6.70
2019-02-16T07:24:07.821Z,6.70
2019-02-16T07:24:43.320Z,6.70
2019-02-16T07:25:18.816Z,6.70
2019-02-16T07:25:54.621Z,6.70
2019-02-16T07:26:30.126Z,6.80
2019-02-16T07:27:05.624Z,6.80
2019-02-16T07:27:41.426Z,6.90
2019-02-16T07:28:16.957Z,6.90
2019-02-16T07:28:52.509Z,6.90
2019-02-16T07:29:28.074Z,6.90
2019-02-16T07:30:03.714Z,6.90
2019-02-16T07:30:39.242Z,6.90
2019-02-16T07:31:15.974Z,6.90
2019-02-16T07:31:51.771Z,6.90
2019-02-16T07:32:27.508Z,6.80
2019-02-16T07:33:03.030Z,6.90
2019-02-16T07:33:38.592Z,6.80
2019-02-16T07:34:14.118Z,6.80
2019-02-16T07:34:49.860Z,6.90
2019-02-16T07:35:25.403Z,6.90
2019-02-16T07:36:01.166Z,6.90
2019-02-16T07:36:36.691Z,6.90
2019-02-16T07:37:12.426Z,6.80
2019-02-16T07:37:48.058Z,6.80
2019-02-16T07:38:23.595Z,6.80
2019-02-16T07:38:59.199Z,6.80
2019-02-16T07:39:34.707Z,6.80
2019-02-16T07:40:10.598Z,6.80
2019-02-16T07:40:46.246Z,6.80
2019-02-16T07:41:21.739Z,6.80
2019-02-16T07:41:57.437Z,6.70
2019-02-16T07:42:56.923Z,6.70
2019-02-16T07:44:00.518Z,6.70
2019-02-16T07:44:45.015Z,6.70
2019-02-16T07:45:44.849Z,6.70
2019-02-16T07:46:42.497Z,6.70
2019-02-16T07:47:35.554Z,6.70
2019-02-16T07:48:18.228Z,6.70
2019-02-16T07:49:03.532Z,6.70
2019-02-16T07:49:56.821Z,6.70
2019-02-16T07:50:52.359Z,6.60
2019-02-16T07:51:39.885Z,6.70
2019-02-16T07:52:30.070Z,6.60
2019-02-16T07:53:31.419Z,6.70
2019-02-16T07:54:24.008Z,6.70
2019-02-16T07:55:10.287Z,6.70
2019-02-16T07:56:03.710Z,6.70
2019-02-16T07:56:47.673Z,6.70
2019-02-16T07:57:31.853Z,6.70
2019-02-16T07:58:12.313Z,6.70
2019-02-16T07:58:52.676Z,6.70
2019-02-16T07:59:33.953Z,6.70
2019-02-16T08:00:26.752Z,6.70
2019-02-16T08:01:11.013Z,6.70
2019-02-16T08:02:14.837Z,6.70
2019-02-16T08:02:56.888Z,6.70
2019-02-16T08:03:39.346Z,6.70
2019-02-16T08:04:37.226Z,6.70
2019-02-16T08:05:31.826Z,6.70
2019-02-16T08:06:26.431Z,6.70
2019-02-16T08:07:36.235Z,6.70
2019-02-16T08:08:36.929Z,6.70
2019-02-16T08:09:27.054Z,6.80